createdAt,value
2022-12-26T00:00:11.978Z,19.83
2022-12-26T00:03:00.586Z,20.30
2022-12-26T00:05:29.412Z,19.58
2022-12-26T00:07:57.679Z,18.80
2022-12-26T00:10:27.592Z,18.90
2022-12-26T00:12:55.853Z,18.83
2022-12-26T00:15:44.386Z,18.70
2022-12-26T00:18:12.704Z,20.42
2022-12-26T00:20:41.242Z,20.65
2022-12-26T00:23:09.440Z,20.20
2022-12-26T00:25:39.470Z,21.95
2022-12-26T00:28:07.630Z,20.88
2022-12-26T00:30:38.739Z,21.35
2022-12-26T00:33:07.066Z,20.42
2022-12-26T00:35:35.547Z,21.27
2022-12-26T00:38:03.929Z,20.55
2022-12-26T00:40:32.556Z,19.20
2022-12-26T00:43:02.291Z,19.08
2022-12-26T00:45:30.884Z,19.40
2022-12-26T00:47:59.142Z,19.33
2022-12-26T00:50:34.207Z,20.77
2022-12-26T00:53:02.949Z,20.83
2022-12-26T00:55:31.514Z,22.40
2022-12-26T00:58:01.161Z,20.58
2022-12-26T01:00:29.914Z,20.95
2022-12-26T01:02:58.287Z,19.75
2022-12-26T01:05:27.531Z,20.73
2022-12-26T01:08:21.627Z,19.80
2022-12-26T01:10:47.046Z,19.67
2022-12-26T01:13:16.728Z,20.58
2022-12-26T01:15:49.955Z,20.00
2022-12-26T01:18:18.189Z,20.73
2022-12-26T01:20:46.743Z,20.50
2022-12-26T01:23:15.216Z,20.67
2022-12-26T01:26:15.411Z,20.55
2022-12-26T01:28:33.520Z,20.63
2022-12-26T01:31:03.243Z,20.05
2022-12-26T01:33:31.659Z,21.08
2022-12-26T01:36:00.826Z,20.10
2022-12-26T01:38:29.476Z,18.70
2022-12-26T01:41:12.132Z,17.45
2022-12-26T01:43:54.280Z,22.23
2022-12-26T01:46:24.483Z,22.13
2022-12-26T01:48:53.470Z,20.77
2022-12-26T01:51:23.505Z,21.83
2022-12-26T01:53:54.354Z,22.70
2022-12-26T01:56:25.492Z,22.92
2022-12-26T01:58:57.719Z,21.50
2022-12-26T02:01:27.635Z,22.85
2022-12-26T02:04:13.442Z,22.08
2022-12-26T02:06:42.533Z,23.85
2022-12-26T02:09:10.912Z,23.35
2022-12-26T02:11:41.882Z,23.13
2022-12-26T02:14:12.314Z,23.55
2022-12-26T02:16:41.822Z,24.77
2022-12-26T02:19:17.071Z,23.38
2022-12-26T02:22:04.071Z,23.98
2022-12-26T02:25:00.402Z,22.75
2022-12-26T02:28:01.352Z,22.85
2022-12-26T02:30:38.738Z,19.83
2022-12-26T02:33:28.099Z,22.75
2022-12-26T02:36:11.972Z,19.90
2022-12-26T02:38:46.313Z,18.83
2022-12-26T02:41:26.422Z,17.83
2022-12-26T02:44:27.406Z,18.60
2022-12-26T02:47:02.997Z,19.15
2022-12-26T02:49:59.861Z,27.00
2022-12-26T02:52:49.823Z,25.70
2022-12-26T02:55:38.378Z,26.33
2022-12-26T02:58:29.043Z,21.30
2022-12-26T03:01:17.963Z,19.45
2022-12-26T03:04:06.595Z,20.00
2022-12-26T03:06:53.939Z,24.10
2022-12-26T03:09:41.415Z,23.38
2022-12-26T03:12:46.037Z,23.80
2022-12-26T03:15:17.486Z,23.73
2022-12-26T03:17:48.585Z,22.75
2022-12-26T03:20:20.278Z,24.67
2022-12-26T03:22:51.305Z,24.50
2022-12-26T03:25:41.856Z,24.23
2022-12-26T03:28:10.470Z,23.35
2022-12-26T03:30:50.533Z,22.52
2022-12-26T03:33:38.010Z,24.20
2022-12-26T03:36:09.015Z,21.25
2022-12-26T03:38:51.478Z,22.73
2022-12-26T03:41:43.451Z,22.13
2022-12-26T03:44:38.549Z,22.05
2022-12-26T03:47:34.072Z,21.98
2022-12-26T03:50:24.273Z,23.38
2022-12-26T03:53:16.188Z,20.80
2022-12-26T03:56:07.528Z,22.17
2022-12-26T03:58:59.848Z,23.77
2022-12-26T04:01:58.016Z,23.40
2022-12-26T04:04:44.200Z,23.52
2022-12-26T04:07:33.087Z,23.40
2022-12-26T04:10:22.967Z,23.17
2022-12-26T04:13:10.305Z,23.55
2022-12-26T04:16:00.859Z,23.58
2022-12-26T04:18:53.449Z,25.42
2022-12-26T04:21:41.595Z,23.85
2022-12-26T04:24:31.400Z,22.67
2022-12-26T04:27:20.541Z,24.45
2022-12-26T04:30:06.820Z,24.60
2022-12-26T04:32:56.186Z,23.33
2022-12-26T04:35:47.825Z,26.05
2022-12-26T04:38:37.640Z,23.77
2022-12-26T04:41:23.991Z,25.95
2022-12-26T04:44:10.384Z,30.00
2022-12-26T04:46:41.029Z,31.13
2022-12-26T04:49:29.055Z,21.88
2022-12-26T04:51:58.408Z,25.98
2022-12-26T04:54:27.221Z,26.98
2022-12-26T04:56:56.067Z,28.02
2022-12-26T04:59:26.237Z,22.80
2022-12-26T05:02:20.618Z,23.20
2022-12-26T05:05:06.455Z,18.23
2022-12-26T05:07:54.293Z,16.40
2022-12-26T05:10:24.396Z,15.60
2022-12-26T05:12:53.433Z,15.27
2022-12-26T05:15:23.411Z,15.88
2022-12-26T05:18:09.538Z,15.90
2022-12-26T05:20:54.934Z,13.18
2022-12-26T05:23:43.050Z,13.52
2022-12-26T05:26:33.164Z,12.95
2022-12-26T05:29:03.952Z,11.25
2022-12-26T05:31:36.519Z,11.30
2022-12-26T05:34:07.691Z,11.55
2022-12-26T05:36:39.478Z,11.17
2022-12-26T05:39:09.256Z,11.60
2022-12-26T05:41:38.262Z,10.93
2022-12-26T05:44:06.990Z,10.30
2022-12-26T05:46:37.226Z,9.55
2022-12-26T05:49:06.967Z,9.70
2022-12-26T05:51:35.223Z,9.15
2022-12-26T05:54:04.320Z,9.05
2022-12-26T05:56:32.568Z,8.07
2022-12-26T05:59:02.270Z,8.70
2022-12-26T06:01:31.175Z,8.35
2022-12-26T06:04:03.040Z,7.87
2022-12-26T06:06:31.286Z,8.32
2022-12-26T06:08:59.900Z,9.52
2022-12-26T06:11:28.222Z,8.68
2022-12-26T06:13:57.324Z,9.52
2022-12-26T06:16:25.843Z,9.65
2022-12-26T06:18:55.881Z,9.15
2022-12-26T06:21:26.351Z,9.50
2022-12-26T06:23:54.846Z,9.48
2022-12-26T06:26:23.172Z,9.23
2022-12-26T06:28:51.826Z,10.02
2022-12-26T06:31:21.818Z,9.90
2022-12-26T06:33:51.581Z,8.93
2022-12-26T06:36:22.250Z,8.88
2022-12-26T06:38:52.445Z,8.35
2022-12-26T06:41:23.171Z,8.55
2022-12-26T06:43:52.065Z,8.93
2022-12-26T06:46:22.581Z,7.60
2022-12-26T06:48:51.395Z,8.00
2022-12-26T06:51:22.074Z,8.80
2022-12-26T06:53:53.317Z,8.68
2022-12-26T06:56:23.295Z,8.70
2022-12-26T06:58:54.494Z,7.80
2022-12-26T07:01:23.741Z,7.80
2022-12-26T07:03:53.459Z,7.10
2022-12-26T07:06:24.278Z,8.20
2022-12-26T07:08:57.519Z,8.32
2022-12-26T07:11:27.111Z,7.18
2022-12-26T07:13:56.172Z,8.00
2022-12-26T07:16:25.363Z,8.35
2022-12-26T07:18:55.030Z,7.70
2022-12-26T07:21:23.680Z,9.07
2022-12-26T07:23:52.456Z,7.88
2022-12-26T07:26:22.946Z,7.65
2022-12-26T07:28:54.627Z,8.10
2022-12-26T07:33:52.100Z,8.52
2022-12-26T07:36:20.720Z,7.72
2022-12-26T07:38:49.297Z,8.18
2022-12-26T07:41:35.352Z,7.90
2022-12-26T07:44:06.241Z,8.23
2022-12-26T07:46:35.096Z,8.27
2022-12-26T07:49:04.111Z,7.85
2022-12-26T07:51:32.674Z,8.25
2022-12-26T07:54:04.262Z,8.07
2022-12-26T07:56:37.383Z,9.80
2022-12-26T07:59:07.362Z,8.90
2022-12-26T08:01:35.772Z,8.63
2022-12-26T08:04:04.456Z,8.88
2022-12-26T08:06:32.851Z,8.85
2022-12-26T08:09:01.550Z,9.02
2022-12-26T08:11:30.377Z,9.05
2022-12-26T08:13:58.963Z,8.98
2022-12-26T08:16:28.661Z,9.25
2022-12-26T08:18:57.179Z,9.23
2022-12-26T08:21:25.363Z,8.77
2022-12-26T08:23:54.061Z,8.82
2022-12-26T08:26:23.419Z,9.05
2022-12-26T08:28:52.988Z,9.02
2022-12-26T08:31:22.023Z,9.02
2022-12-26T08:33:52.549Z,9.85
2022-12-26T08:36:20.716Z,9.88
2022-12-26T08:38:49.412Z,11.05
2022-12-26T08:41:18.649Z,9.85
2022-12-26T08:44:25.711Z,9.45
2022-12-26T08:46:38.835Z,9.85
2022-12-26T08:49:08.859Z,9.05
2022-12-26T08:51:37.386Z,8.73
2022-12-26T08:54:06.462Z,8.20
2022-12-26T08:56:34.739Z,8.43
2022-12-26T08:59:03.394Z,9.77
2022-12-26T09:01:32.634Z,10.02
2022-12-26T09:04:03.345Z,8.95
2022-12-26T09:06:35.947Z,9.40
2022-12-26T09:09:05.713Z,9.40
2022-12-26T09:11:34.291Z,9.27
2022-12-26T09:14:03.770Z,12.80
2022-12-26T09:16:38.022Z,11.27
2022-12-26T09:19:08.007Z,13.85
2022-12-26T09:21:39.516Z,14.15
2022-12-26T09:24:11.013Z,13.95
2022-12-26T09:26:39.840Z,13.52
2022-12-26T09:29:08.917Z,11.23
2022-12-26T09:31:37.510Z,10.45
2022-12-26T09:34:07.337Z,14.45
2022-12-26T09:36:39.050Z,14.45
2022-12-26T09:45:42.772Z,12.55
2022-12-26T13:30:19.591Z,12.20
2022-12-26T13:33:26.447Z,12.20
2022-12-26T14:50:52.446Z,10.73
2022-12-26T14:56:33.073Z,10.75
2022-12-26T14:59:26.309Z,10.73
2022-12-26T15:02:08.849Z,9.65
2022-12-26T15:05:04.902Z,9.30
2022-12-26T15:08:05.423Z,9.20
2022-12-26T15:11:03.619Z,9.25
2022-12-26T15:14:04.627Z,9.10
2022-12-26T15:17:03.332Z,9.57
2022-12-26T15:20:16.838Z,12.85
2022-12-26T15:23:20.677Z,11.27
2022-12-26T15:26:03.533Z,10.32
2022-12-26T15:28:54.525Z,9.60
2022-12-26T15:31:31.891Z,9.05
2022-12-26T15:34:04.150Z,8.82
2022-12-26T15:36:40.951Z,8.07
2022-12-26T15:39:20.926Z,9.35
2022-12-26T15:41:54.120Z,8.67
2022-12-26T15:44:29.064Z,9.95
2022-12-26T15:47:08.900Z,10.18
2022-12-26T15:49:54.690Z,8.77
2022-12-26T15:52:34.313Z,9.18
2022-12-26T15:55:31.588Z,10.82
2022-12-26T15:58:04.516Z,10.07
2022-12-26T16:00:34.271Z,11.40
2022-12-26T16:03:24.265Z,8.77
2022-12-26T16:05:56.989Z,9.52
2022-12-26T16:08:58.266Z,9.40
2022-12-26T16:11:33.524Z,8.90
2022-12-26T16:14:04.548Z,9.98
2022-12-26T16:16:35.233Z,11.13
2022-12-26T16:19:17.456Z,10.43
2022-12-26T16:22:06.349Z,9.88
2022-12-26T16:24:35.815Z,10.52
2022-12-26T16:27:07.582Z,10.13
2022-12-26T16:29:48.109Z,11.55
2022-12-26T16:32:20.404Z,10.70
2022-12-26T16:34:49.512Z,10.63
2022-12-26T16:37:21.246Z,9.27
2022-12-26T16:40:18.159Z,10.73
2022-12-26T16:42:57.274Z,11.13
2022-12-26T16:45:27.306Z,11.32
2022-12-26T16:47:56.133Z,12.55
2022-12-26T16:50:29.480Z,13.00
2022-12-26T16:53:13.295Z,12.20
2022-12-26T16:55:47.654Z,11.25
2022-12-26T16:58:24.914Z,11.88
2022-12-26T17:01:19.597Z,12.23
2022-12-26T17:03:58.977Z,12.85
2022-12-26T17:09:41.615Z,17.25
2022-12-26T17:12:20.135Z,16.27
2022-12-26T17:14:51.276Z,14.05
2022-12-26T17:20:35.220Z,12.23
2022-12-26T17:23:35.349Z,11.77
2022-12-26T17:26:22.833Z,11.90
2022-12-26T17:28:59.489Z,11.70
2022-12-26T17:31:43.292Z,12.65
2022-12-26T17:34:32.514Z,11.60
2022-12-26T17:37:22.695Z,12.27
2022-12-26T17:40:26.876Z,12.65
2022-12-26T17:43:08.416Z,12.77
2022-12-26T17:45:42.797Z,13.05
2022-12-26T17:48:16.880Z,13.65
2022-12-26T17:50:47.680Z,13.05
2022-12-26T17:53:26.159Z,13.40
2022-12-26T17:55:56.221Z,13.55
2022-12-26T18:01:37.711Z,13.52
2022-12-26T18:04:08.058Z,12.10
2022-12-26T18:06:37.863Z,13.60
2022-12-26T18:09:06.400Z,13.82
2022-12-26T18:11:36.201Z,13.40
2022-12-26T18:14:04.963Z,14.30
2022-12-26T18:16:33.740Z,13.25
2022-12-26T18:19:03.085Z,13.30
2022-12-26T18:21:32.834Z,13.52
2022-12-26T18:24:01.583Z,14.20
2022-12-26T18:26:59.958Z,12.98
2022-12-26T18:29:29.014Z,12.32
2022-12-26T18:31:57.359Z,13.75
2022-12-26T18:34:26.122Z,13.45
2022-12-26T18:36:57.570Z,12.90
2022-12-26T18:40:20.051Z,12.73
2022-12-26T18:43:30.952Z,11.63
2022-12-26T18:46:31.369Z,12.68
2022-12-26T18:53:31.505Z,12.57
2022-12-26T18:56:42.392Z,14.10
2022-12-26T18:59:49.557Z,12.90
2022-12-26T19:02:20.025Z,13.48
2022-12-26T19:04:52.011Z,12.73
2022-12-26T19:07:22.796Z,13.23
2022-12-26T19:09:56.911Z,14.13
2022-12-26T19:12:27.959Z,13.30
2022-12-26T19:14:57.133Z,13.63
2022-12-26T19:17:26.987Z,12.60
2022-12-26T19:19:55.692Z,14.02
2022-12-26T19:22:24.488Z,15.43
2022-12-26T19:25:12.583Z,17.80
2022-12-26T19:27:41.679Z,18.48
2022-12-26T19:30:25.267Z,26.38
2022-12-26T19:32:56.432Z,21.65
2022-12-26T19:35:29.710Z,18.10
2022-12-26T19:38:03.524Z,20.83
2022-12-26T19:40:37.492Z,20.27
2022-12-26T19:43:07.443Z,17.45
2022-12-26T19:45:36.803Z,14.93
2022-12-26T19:48:07.804Z,14.63
2022-12-26T19:50:38.989Z,13.93
2022-12-26T19:54:00.535Z,14.65
2022-12-26T19:57:35.969Z,14.77
2022-12-26T20:01:00.711Z,16.98
2022-12-26T20:03:47.126Z,14.52
2022-12-26T20:07:19.988Z,14.75
2022-12-26T20:11:11.730Z,15.27
2022-12-26T20:13:59.771Z,15.50
2022-12-26T20:17:09.124Z,13.52
2022-12-26T20:19:47.805Z,14.45
2022-12-26T20:22:28.526Z,15.52
2022-12-26T20:25:02.657Z,15.35
2022-12-26T20:27:41.474Z,15.35
2022-12-26T20:30:32.280Z,15.48
2022-12-26T20:33:09.609Z,15.90
2022-12-26T20:39:24.573Z,17.40
2022-12-26T20:41:59.585Z,15.48
2022-12-26T20:44:41.604Z,14.63
2022-12-26T20:47:15.130Z,14.00
2022-12-26T20:50:13.536Z,14.48
2022-12-26T20:52:57.481Z,14.02
2022-12-26T20:55:35.231Z,14.20
2022-12-26T20:58:07.240Z,14.05
2022-12-26T21:00:36.843Z,13.70
2022-12-26T21:03:07.351Z,13.82
2022-12-26T21:05:36.735Z,15.77
2022-12-26T21:08:08.956Z,15.50
2022-12-26T21:10:40.464Z,16.58
2022-12-26T21:13:09.600Z,16.48
2022-12-26T21:15:39.692Z,16.52
2022-12-26T21:18:21.534Z,16.45
2022-12-26T21:20:54.009Z,16.65
2022-12-26T21:23:37.454Z,16.95
2022-12-26T21:31:05.149Z,16.05
2022-12-26T21:34:12.400Z,16.38
2022-12-26T21:37:18.446Z,15.75
2022-12-26T21:43:52.803Z,16.55
2022-12-26T21:46:43.292Z,17.27
2022-12-26T21:49:34.589Z,15.40
2022-12-26T21:52:06.073Z,15.30
2022-12-26T21:55:13.155Z,16.08
2022-12-26T21:57:48.388Z,15.85
2022-12-26T22:00:18.089Z,15.45
2022-12-26T22:03:14.217Z,15.88
2022-12-26T22:05:54.377Z,15.38
2022-12-26T22:08:23.650Z,14.13
2022-12-26T22:11:10.129Z,15.38
2022-12-26T22:13:46.797Z,16.08
2022-12-26T22:16:17.392Z,15.57
2022-12-26T22:18:53.453Z,16.15
2022-12-26T22:21:26.438Z,14.35
2022-12-26T22:23:59.881Z,14.73
2022-12-26T22:26:35.072Z,14.18
2022-12-26T22:29:07.487Z,13.73
2022-12-26T22:31:39.569Z,14.65
2022-12-26T22:34:14.989Z,13.60
2022-12-26T22:36:48.525Z,15.05
2022-12-26T22:39:20.096Z,15.18
2022-12-26T22:42:02.250Z,15.02
2022-12-26T22:44:31.841Z,14.85
2022-12-26T22:47:01.323Z,15.15
2022-12-26T22:49:47.688Z,13.45
2022-12-26T22:52:22.859Z,15.40
2022-12-26T22:54:52.343Z,14.98
2022-12-26T22:57:24.642Z,13.80
2022-12-26T23:00:11.602Z,15.05
2022-12-26T23:02:43.636Z,13.77
2022-12-26T23:05:13.716Z,13.20
2022-12-26T23:07:44.286Z,13.75
2022-12-26T23:10:19.406Z,15.02
2022-12-26T23:12:48.545Z,14.20
2022-12-26T23:15:21.123Z,14.85
2022-12-26T23:18:11.960Z,14.02
2022-12-26T23:21:26.595Z,14.40
2022-12-26T23:23:56.306Z,15.00
2022-12-26T23:26:25.195Z,15.15
2022-12-26T23:29:12.541Z,14.93
2022-12-26T23:31:43.462Z,13.80
2022-12-26T23:34:15.541Z,13.73
2022-12-26T23:36:45.205Z,13.43
2022-12-26T23:39:15.647Z,13.30
2022-12-26T23:41:47.408Z,14.70
2022-12-26T23:44:15.781Z,13.25
2022-12-26T23:46:45.066Z,12.00
2022-12-26T23:49:15.253Z,13.27
2022-12-26T23:51:46.810Z,12.20
2022-12-26T23:56:45.860Z,13.65
2022-12-26T23:59:14.251Z,14.13
